Time;durP1;ratioP1;P1;durP2;ratioP2;P2;SDS_P1;SDS_P2;PMS_P1;PMS_P2;Temp;Humidity;BMP_temperature;BMP_pressure;BME280_temperature;BME280_humidity;BME280_pressure;Samples;Min_cycle;Max_cycle;Signal;HPM_P1;HPM_P2
2021/06/18 00:00:27;;;;;;;2.08;1.00;;;;;;;23.09;43.32;101826.28;4990153;28;20117;-66
2021/06/18 00:02:53;;;;;;;3.83;1.20;;;;;;;23.11;43.31;101834.94;4968042;28;20449;-67
2021/06/18 00:05:20;;;;;;;3.28;1.27;;;;;;;23.12;43.46;101833.91;4990214;28;20030;-66
2021/06/18 00:07:46;;;;;;;2.72;1.10;;;;;;;23.12;43.23;101833.91;4989748;28;20041;-66
2021/06/18 00:10:15;;;;;;;2.85;1.17;;;;;;;23.12;43.40;101833.91;4955575;28;20066;-66
2021/06/18 00:12:41;;;;;;;2.03;1.02;;;;;;;23.12;43.33;101838.44;4971873;28;20034;-66
2021/06/18 00:15:08;;;;;;;3.08;0.90;;;;;;;23.12;43.28;101833.91;4989390;28;20038;-66
2021/06/18 00:17:34;;;;;;;3.10;1.00;;;;;;;23.13;43.49;101845.44;4990029;28;20477;-69
2021/06/18 00:20:00;;;;;;;2.85;1.20;;;;;;;23.14;43.32;101842.56;4971493;28;20038;-67
2021/06/18 00:22:25;;;;;;;1.65;0.98;;;;;;;23.13;43.31;101840.91;4956223;28;20042;-67
2021/06/18 00:24:51;;;;;;;2.03;0.90;;;;;;;23.13;43.16;101843.59;4989329;28;20045;-66
2021/06/18 00:27:17;;;;;;;2.13;1.10;;;;;;;23.14;43.77;101841.75;4989315;28;20150;-66
2021/06/18 00:29:42;;;;;;;2.33;1.00;;;;;;;23.14;43.30;101852.44;4972131;28;20038;-66
2021/06/18 00:32:07;;;;;;;2.85;1.17;;;;;;;23.14;43.58;101850.59;4989253;28;20029;-66
2021/06/18 00:34:33;;;;;;;3.13;1.00;;;;;;;23.14;43.61;101853.28;4954754;28;20034;-66
2021/06/18 00:36:58;;;;;;;2.08;1.00;;;;;;;23.15;43.61;101854.94;4971571;28;20461;-69
2021/06/18 00:39:24;;;;;;;3.17;1.15;;;;;;;23.15;43.68;101856.78;4942431;28;20054;-66
2021/06/18 00:41:50;;;;;;;3.50;1.05;;;;;;;23.15;43.51;101860.28;4989769;28;20053;-67
2021/06/18 00:44:16;;;;;;;2.15;1.00;;;;;;;23.14;43.35;101853.28;4970707;28;20042;-67
2021/06/18 00:46:43;;;;;;;2.45;1.00;;;;;;;23.15;43.26;101862.97;4989697;28;20493;-66
2021/06/18 00:49:11;;;;;;;2.17;0.90;;;;;;;23.15;43.44;101859.44;4987738;28;20069;-68
2021/06/18 00:51:38;;;;;;;2.72;0.90;;;;;;;23.15;43.34;101857.59;4989814;28;20105;-67
2021/06/18 00:54:05;;;;;;;1.63;0.90;;;;;;;23.15;43.61;101865.63;4988397;28;20049;-67
2021/06/18 00:56:31;;;;;;;3.17;1.20;;;;;;;23.16;43.55;101861.09;4989869;28;20125;-66
2021/06/18 00:58:57;;;;;;;1.80;0.80;;;;;;;23.15;43.56;101870.97;4971971;28;20450;-66
2021/06/18 01:01:23;;;;;;;2.92;0.90;;;;;;;23.15;43.80;101867.47;4971124;28;20037;-66
2021/06/18 01:03:48;;;;;;;2.55;0.88;;;;;;;23.15;43.74;101860.28;4988196;28;20046;-66
2021/06/18 01:06:26;;;;;;;1.63;0.90;;;;;;;23.14;43.61;101858.63;4955356;28;20125;-67
2021/06/18 01:08:59;;;;;;;2.30;1.02;;;;;;;23.15;43.68;101872.84;4971365;28;20125;-66
2021/06/18 01:11:47;;;;;;;2.55;1.17;;;;;;;23.16;43.73;101861.09;4971520;28;20045;-66
2021/06/18 01:14:23;;;;;;;3.72;1.10;;;;;;;23.14;43.80;101863.97;4978162;28;20046;-66
2021/06/18 01:17:03;;;;;;;2.08;1.00;;;;;;;23.15;43.66;101864.81;4988793;28;20038;-66
2021/06/18 01:19:41;;;;;;;2.03;1.00;;;;;;;23.16;43.89;101872.63;4971024;28;20034;-66
2021/06/18 01:22:13;;;;;;;2.40;1.05;;;;;;;23.15;44.19;101868.31;4988188;28;20443;-66
2021/06/18 01:25:02;;;;;;;2.38;1.00;;;;;;;23.13;43.84;101867.69;4991814;28;20045;-66
2021/06/18 01:27:52;;;;;;;2.30;0.90;;;;;;;23.14;44.15;101866.66;4992274;28;20034;-66
2021/06/18 01:30:23;;;;;;;2.63;1.10;;;;;;;23.16;44.27;101874.50;4992237;28;20045;-67
2021/06/18 01:32:57;;;;;;;2.00;1.00;;;;;;;23.14;44.18;101869.34;4992325;28;20483;-66
2021/06/18 01:35:25;;;;;;;1.20;0.73;;;;;;;23.17;44.01;101870.78;4991486;28;20030;-66
2021/06/18 01:37:56;;;;;;;2.38;0.80;;;;;;;23.17;44.33;101876.13;4975123;28;20026;-67
2021/06/18 01:40:26;;;;;;;2.45;0.90;;;;;;;23.17;43.94;101876.97;4992382;28;20046;-69
2021/06/18 01:42:52;;;;;;;1.63;0.80;;;;;;;23.17;43.99;101874.28;4992854;28;20026;-67
2021/06/18 01:45:21;;;;;;;2.20;0.93;;;;;;;23.18;44.06;101877.78;4975250;28;20033;-66
2021/06/18 01:47:47;;;;;;;1.52;0.70;;;;;;;23.18;44.13;101885.81;4991387;28;20038;-66
2021/06/18 01:50:17;;;;;;;1.92;0.75;;;;;;;23.18;44.01;101880.47;4990654;28;20053;-66
2021/06/18 01:52:48;;;;;;;2.50;1.15;;;;;;;23.17;43.92;101879.66;4974625;28;20037;-66
2021/06/18 01:55:16;;;;;;;1.40;0.70;;;;;;;23.18;44.04;101872.44;4992039;28;20757;-66
2021/06/18 01:57:42;;;;;;;1.88;0.90;;;;;;;23.17;43.86;101879.66;4992320;28;20039;-67
2021/06/18 02:00:09;;;;;;;1.33;0.70;;;;;;;23.19;44.02;101874.09;4974477;28;20027;-67
2021/06/18 02:02:36;;;;;;;2.17;0.88;;;;;;;23.18;43.70;101875.13;4991808;28;20479;-68
2021/06/18 02:05:06;;;;;;;2.20;1.05;;;;;;;23.17;44.14;101876.13;4991976;28;20792;-69
2021/06/18 02:07:34;;;;;;;1.92;0.90;;;;;;;23.18;43.65;101878.63;4974653;28;20069;-67
2021/06/18 02:10:05;;;;;;;2.38;1.00;;;;;;;23.18;43.76;101872.44;4987675;28;20038;-67
2021/06/18 02:12:31;;;;;;;1.38;0.80;;;;;;;23.17;43.97;101868.94;4970703;28;20170;-67
2021/06/18 02:14:57;;;;;;;1.52;0.70;;;;;;;23.18;43.93;101870.59;4986556;28;20109;-66
2021/06/18 02:17:25;;;;;;;2.38;0.80;;;;;;;23.18;43.89;101867.91;4951175;28;20039;-66
2021/06/18 02:19:54;;;;;;;2.60;0.85;;;;;;;23.18;43.84;101873.25;4984613;28;20092;-66
2021/06/18 02:22:21;;;;;;;2.28;1.00;;;;;;;23.18;43.64;101875.94;4958049;28;20490;-67
2021/06/18 02:24:48;;;;;;;2.83;0.77;;;;;;;23.18;43.86;101875.13;4991947;28;20038;-67
2021/06/18 02:27:15;;;;;;;2.40;0.80;;;;;;;23.18;44.00;101883.16;4973608;28;20034;-67
2021/06/18 02:29:45;;;;;;;1.67;0.80;;;;;;;23.17;43.69;101876.97;4991329;28;20038;-67
2021/06/18 02:32:13;;;;;;;1.35;0.73;;;;;;;23.18;43.63;101875.13;4991115;28;20035;-66
2021/06/18 02:34:39;;;;;;;2.13;1.05;;;;;;;23.17;43.75;101874.28;4984293;28;20130;-66
2021/06/18 02:37:06;;;;;;;1.30;0.63;;;;;;;23.19;44.09;101874.91;4973025;28;20039;-67
2021/06/18 02:39:32;;;;;;;1.52;0.80;;;;;;;23.18;43.95;101881.28;4991237;28;20058;-66
2021/06/18 02:41:58;;;;;;;1.60;0.90;;;;;;;23.18;43.81;101878.63;4941692;28;20049;-66
2021/06/18 02:44:24;;;;;;;2.50;1.05;;;;;;;23.18;43.54;101880.47;4970353;28;20034;-67
2021/06/18 02:47:01;;;;;;;1.98;0.75;;;;;;;23.17;43.73;101879.66;4987421;28;20031;-69
2021/06/18 02:49:38;;;;;;;1.75;0.82;;;;;;;23.17;43.91;101879.66;4976487;28;20478;-66
2021/06/18 02:52:14;;;;;;;2.10;0.80;;;;;;;23.16;43.97;101878.00;4991015;28;20509;-69
2021/06/18 02:54:45;;;;;;;1.23;0.63;;;;;;;23.18;44.06;101886.66;4991267;28;20030;-67
2021/06/18 02:57:19;;;;;;;1.85;0.80;;;;;;;23.17;43.94;101890.34;4990170;28;20096;-67
2021/06/18 03:00:10;;;;;;;1.95;0.82;;;;;;;23.15;43.93;101892.41;4991392;28;20049;-66
2021/06/18 03:02:43;;;;;;;1.98;0.93;;;;;;;23.18;43.79;101897.34;4978447;28;20080;-68
2021/06/18 03:05:12;;;;;;;2.20;0.80;;;;;;;23.17;44.00;101893.03;4985498;28;20497;-67
2021/06/18 03:07:42;;;;;;;2.38;1.08;;;;;;;23.18;43.65;101901.88;4977646;28;20449;-66
2021/06/18 03:10:09;;;;;;;1.60;0.65;;;;;;;23.18;43.72;101897.34;4990554;28;20118;-66
2021/06/18 03:12:41;;;;;;;1.77;0.70;;;;;;;23.17;43.75;101898.38;4989042;28;20130;-68
2021/06/18 03:15:09;;;;;;;1.35;0.68;;;;;;;23.19;43.95;101900.88;4991072;28;20112;-67
2021/06/18 03:17:41;;;;;;;1.55;0.90;;;;;;;23.17;43.69;101894.88;4956901;28;20034;-69
2021/06/18 03:20:14;;;;;;;1.75;0.82;;;;;;;23.16;44.00;101894.06;4989913;28;20454;-67
2021/06/18 03:22:42;;;;;;;1.87;0.80;;;;;;;23.17;43.62;101901.06;4991112;28;20095;-67
2021/06/18 03:25:08;;;;;;;1.70;0.73;;;;;;;23.18;43.43;101896.53;4973084;28;20490;-67
2021/06/18 03:27:35;;;;;;;1.67;0.70;;;;;;;23.18;43.88;101901.88;4989980;28;20042;-69
2021/06/18 03:30:01;;;;;;;1.77;0.80;;;;;;;23.17;44.02;101901.06;4990835;28;20438;-66
2021/06/18 03:32:28;;;;;;;1.10;0.70;;;;;;;23.18;43.86;101901.88;4990033;28;20084;-67
2021/06/18 03:34:55;;;;;;;1.10;0.60;;;;;;;23.17;43.65;101906.41;4972213;28;20045;-67
2021/06/18 03:37:20;;;;;;;2.20;0.70;;;;;;;23.17;43.63;101909.09;4989149;28;20046;-66
2021/06/18 03:39:47;;;;;;;2.08;0.65;;;;;;;23.17;43.77;101900.22;4989729;28;20056;-66
2021/06/18 03:42:13;;;;;;;2.47;0.80;;;;;;;23.17;43.82;101906.41;4990447;28;20042;-66
2021/06/18 03:44:39;;;;;;;1.00;0.70;;;;;;;23.18;43.76;101908.06;4955863;28;20034;-67
2021/06/18 03:47:06;;;;;;;2.55;0.70;;;;;;;23.18;43.93;101908.06;4989594;28;20034;-67
2021/06/18 03:49:33;;;;;;;1.98;0.85;;;;;;;23.17;43.85;101917.13;4971767;28;20327;-66
2021/06/18 03:51:58;;;;;;;1.85;0.80;;;;;;;23.18;44.01;101907.25;4959823;28;20054;-66
2021/06/18 03:54:24;;;;;;;1.08;0.63;;;;;;;23.17;43.77;101909.09;4988020;28;20537;-66
2021/06/18 03:56:52;;;;;;;1.60;0.80;;;;;;;23.18;44.08;101913.41;4990080;28;20505;-67
2021/06/18 03:59:19;;;;;;;1.30;0.75;;;;;;;23.18;43.93;101915.28;4972195;28;20065;-66
2021/06/18 04:01:49;;;;;;;1.33;0.68;;;;;;;23.18;43.92;101912.59;4989827;28;20031;-67
2021/06/18 04:04:15;;;;;;;2.30;0.70;;;;;;;23.17;44.02;101901.06;4988910;28;20066;-66
2021/06/18 04:06:40;;;;;;;1.92;0.75;;;;;;;23.18;44.07;101910.75;4939902;28;20061;-67
2021/06/18 04:09:06;;;;;;;1.48;0.77;;;;;;;23.18;43.79;101909.91;4972395;28;20460;-69
2021/06/18 04:11:34;;;;;;;1.77;0.70;;;;;;;23.17;44.06;101905.59;4972441;28;20057;-66
2021/06/18 04:14:01;;;;;;;1.13;0.70;;;;;;;23.17;43.71;101909.09;4955662;28;20034;-66
2021/06/18 04:16:28;;;;;;;2.03;0.70;;;;;;;23.17;44.26;101906.41;4989738;28;20038;-66
2021/06/18 04:18:54;;;;;;;2.08;0.70;;;;;;;23.18;43.98;101910.75;4988498;28;20043;-66
2021/06/18 04:21:22;;;;;;;1.70;0.85;;;;;;;23.19;43.86;101909.72;4955973;28;20049;-67
2021/06/18 04:23:48;;;;;;;1.42;0.63;;;;;;;23.18;44.07;101905.38;4971397;28;20513;-66
2021/06/18 04:26:14;;;;;;;1.33;0.70;;;;;;;23.18;43.95;101909.91;4972249;28;20030;-66
2021/06/18 04:28:40;;;;;;;1.42;0.75;;;;;;;23.17;43.79;101917.13;4989629;28;20038;-68
2021/06/18 04:31:06;;;;;;;1.10;0.68;;;;;;;23.17;44.00;101914.44;4969166;28;20247;-66
2021/06/18 04:33:33;;;;;;;1.13;0.60;;;;;;;23.17;44.01;101917.13;4981148;28;20038;-67
2021/06/18 04:35:59;;;;;;;1.45;0.77;;;;;;;23.17;44.03;101922.47;4989111;28;20030;-67
2021/06/18 04:38:25;;;;;;;1.63;0.98;;;;;;;23.18;44.14;101925.97;4989098;28;20084;-67
2021/06/18 04:40:51;;;;;;;1.58;0.70;;;;;;;23.18;44.01;101934.84;4971310;28;20074;-67
2021/06/18 04:43:17;;;;;;;1.63;0.80;;;;;;;23.17;44.03;101925.16;4988896;28;20034;-67
2021/06/18 04:45:43;;;;;;;2.70;1.00;;;;;;;23.17;44.14;101925.16;4989080;28;20491;-66
2021/06/18 04:48:09;;;;;;;1.90;0.98;;;;;;;23.18;43.78;101931.34;4978451;28;20054;-70
2021/06/18 04:50:35;;;;;;;1.63;0.70;;;;;;;23.17;43.84;101927.81;4989348;28;20042;-66
2021/06/18 04:53:01;;;;;;;2.95;0.80;;;;;;;23.17;43.72;101938.53;4971203;28;20398;-67
2021/06/18 04:55:27;;;;;;;0.77;0.60;;;;;;;23.17;43.71;101938.53;4971723;28;20498;-67
2021/06/18 04:57:53;;;;;;;1.00;0.60;;;;;;;23.17;43.91;101938.53;4988798;28;20069;-66
2021/06/18 05:00:23;;;;;;;1.30;0.63;;;;;;;23.17;43.52;101941.22;4989313;28;20351;-67
2021/06/18 05:02:49;;;;;;;1.60;0.52;;;;;;;23.18;43.69;101939.38;4988090;28;20069;-66
2021/06/18 05:05:14;;;;;;;0.80;0.57;;;;;;;23.17;43.84;101935.84;4970772;28;20050;-67
2021/06/18 05:07:40;;;;;;;0.88;0.60;;;;;;;23.18;43.85;101934.84;4988933;28;20126;-66
2021/06/18 05:10:07;;;;;;;0.52;0.50;;;;;;;23.17;43.71;101929.69;4955621;28;20116;-66
2021/06/18 05:12:33;;;;;;;1.52;0.80;;;;;;;23.17;43.73;101941.22;4971267;28;20042;-67
2021/06/18 05:14:58;;;;;;;1.67;0.70;;;;;;;23.17;43.67;101937.72;4988980;28;20418;-66
2021/06/18 05:17:23;;;;;;;1.45;0.60;;;;;;;23.16;43.85;101944.91;4954614;28;20111;-66
2021/06/18 05:19:49;;;;;;;1.50;0.60;;;;;;;23.17;43.88;101946.56;4955018;28;20042;-66
2021/06/18 05:22:14;;;;;;;2.20;0.73;;;;;;;23.17;43.78;101940.38;4970765;28;20037;-67
2021/06/18 05:24:40;;;;;;;1.40;0.60;;;;;;;23.17;43.64;101954.59;4951880;28;20394;-66
2021/06/18 05:27:05;;;;;;;1.40;0.68;;;;;;;23.16;44.02;101958.28;4984075;28;20034;-67
2021/06/18 05:29:31;;;;;;;1.25;0.63;;;;;;;23.17;44.13;101954.59;4988565;28;20107;-67
2021/06/18 05:31:56;;;;;;;1.25;0.60;;;;;;;23.15;43.75;101953.97;4971125;28;20039;-67
2021/06/18 05:34:22;;;;;;;1.90;0.63;;;;;;;23.17;43.79;101946.56;4969995;28;20042;-67
2021/06/18 05:36:47;;;;;;;0.90;0.63;;;;;;;23.17;44.08;101943.06;4971500;28;20128;-66
2021/06/18 05:39:14;;;;;;;1.58;0.50;;;;;;;23.17;43.81;101948.41;4987959;28;20042;-67
2021/06/18 05:41:41;;;;;;;2.30;0.60;;;;;;;23.16;44.33;101942.22;4972021;28;20042;-66
2021/06/18 05:44:06;;;;;;;4.13;0.70;;;;;;;23.17;44.41;101949.25;4989047;28;20039;-66
2021/06/18 05:46:32;;;;;;;2.83;0.80;;;;;;;23.18;44.69;101950.91;4988113;28;20053;-67
2021/06/18 05:48:58;;;;;;;3.60;0.73;;;;;;;23.17;44.66;101946.56;4987787;28;20034;-68
2021/06/18 05:51:24;;;;;;;1.35;0.60;;;;;;;23.19;44.82;101944.53;4969626;28;20050;-67
2021/06/18 05:53:50;;;;;;;1.60;0.65;;;;;;;23.18;45.01;101942.88;4988633;28;20061;-68
2021/06/18 05:56:15;;;;;;;1.38;0.80;;;;;;;23.18;44.88;101940.19;4970661;28;20073;-67
2021/06/18 05:58:41;;;;;;;2.95;0.70;;;;;;;23.19;44.83;101946.38;4988320;28;20034;-67
2021/06/18 06:01:07;;;;;;;1.67;0.80;;;;;;;23.19;45.17;101941.00;4988849;28;20482;-67
2021/06/18 06:03:33;;;;;;;1.63;0.60;;;;;;;23.18;44.74;101934.84;4987578;28;20593;-68
2021/06/18 06:05:59;;;;;;;1.25;0.70;;;;;;;23.18;45.02;101932.16;4971773;28;20034;-66
2021/06/18 06:08:25;;;;;;;2.08;0.60;;;;;;;23.19;44.58;101931.13;4987806;28;20462;-67
2021/06/18 06:10:50;;;;;;;2.53;0.68;;;;;;;23.18;44.94;101925.97;4972807;28;20031;-67
2021/06/18 06:13:17;;;;;;;1.67;0.57;;;;;;;23.18;44.69;101934.84;4974461;28;20042;-67
2021/06/18 06:15:43;;;;;;;3.28;0.90;;;;;;;23.19;44.58;101931.13;4973870;28;20031;-67
2021/06/18 06:18:08;;;;;;;1.50;0.70;;;;;;;23.19;44.69;101932.97;4991283;28;20041;-67
2021/06/18 06:20:34;;;;;;;1.08;0.70;;;;;;;23.19;44.72;101939.16;4941893;28;20056;-67
2021/06/18 06:22:59;;;;;;;2.20;0.77;;;;;;;23.19;44.39;101936.50;4991956;28;20050;-67
2021/06/18 06:25:25;;;;;;;1.42;0.60;;;;;;;23.19;44.51;101930.31;4974308;28;20045;-67
2021/06/18 06:27:50;;;;;;;3.53;1.10;;;;;;;23.18;44.66;101928.66;4973638;28;20401;-66
2021/06/18 06:30:16;;;;;;;1.50;0.70;;;;;;;23.20;44.87;101926.63;4974296;28;20482;-69
2021/06/18 06:32:42;;;;;;;1.17;0.68;;;;;;;23.18;44.80;101929.47;4972488;28;20034;-68
2021/06/18 06:35:08;;;;;;;2.75;0.73;;;;;;;23.19;45.41;101922.28;4990627;28;20042;-68
2021/06/18 06:37:33;;;;;;;2.10;0.95;;;;;;;23.19;45.23;101925.78;4991033;28;20085;-75
2021/06/18 06:39:59;;;;;;;2.72;0.90;;;;;;;23.20;45.16;101924.78;4957427;28;20147;-68
2021/06/18 06:42:24;;;;;;;3.60;0.70;;;;;;;23.21;45.58;101928.28;4990937;28;20046;-71
2021/06/18 06:44:50;;;;;;;2.35;0.70;;;;;;;23.21;45.88;101925.63;4973740;28;20046;-67
2021/06/18 06:47:15;;;;;;;5.38;0.80;;;;;;;23.20;45.68;101924.78;4991665;28;20041;-71
2021/06/18 06:49:40;;;;;;;6.65;0.98;;;;;;;23.21;45.62;101929.13;4982320;28;20034;-67
2021/06/18 06:52:07;;;;;;;5.13;1.10;;;;;;;23.21;45.83;101926.44;4973603;28;20034;-66
2021/06/18 06:54:33;;;;;;;6.65;1.00;;;;;;;23.22;45.66;101932.63;4992304;28;20046;-69
2021/06/18 06:56:58;;;;;;;2.38;1.10;;;;;;;23.22;45.43;101929.94;4989304;28;20047;-68
2021/06/18 06:59:24;;;;;;;7.45;1.38;;;;;;;23.22;45.39;101924.59;4993523;28;20038;-69
2021/06/18 07:01:49;;;;;;;3.50;0.98;;;;;;;23.22;45.30;101928.09;4991192;28;20037;-68
2021/06/18 07:04:15;;;;;;;6.43;1.20;;;;;;;23.21;45.51;101923.75;4973045;28;20406;-71
2021/06/18 07:06:40;;;;;;;11.55;1.65;;;;;;;23.21;45.37;101920.25;4989136;28;20772;-66
2021/06/18 07:09:06;;;;;;;3.65;1.05;;;;;;;23.20;45.32;101924.78;4972637;28;20047;-68
2021/06/18 07:11:32;;;;;;;4.30;0.90;;;;;;;23.19;45.04;101925.78;4989775;28;20058;-68
2021/06/18 08:14:23;;;;;;;8.18;2.25;;;;;;;22.67;40.98;101902.84;5219889;22;20065;-71
2021/06/18 08:16:48;;;;;;;6.25;1.30;;;;;;;22.66;40.70;101901.22;4986024;28;20049;-72
2021/06/18 08:19:14;;;;;;;6.50;1.70;;;;;;;22.65;40.88;101902.22;4957925;28;20073;-72
2021/06/18 08:21:39;;;;;;;4.40;1.10;;;;;;;22.65;40.79;101907.56;4974975;28;20034;-72
2021/06/18 08:24:05;;;;;;;5.32;1.27;;;;;;;22.65;40.70;101904.06;4991327;28;20543;-72
2021/06/18 08:26:31;;;;;;;5.03;1.40;;;;;;;22.64;40.28;101911.28;5007004;28;20042;-72
2021/06/18 08:28:56;;;;;;;3.65;1.02;;;;;;;22.63;40.12;101906.94;4964083;28;20048;-72
2021/06/18 08:31:22;;;;;;;3.28;1.25;;;;;;;22.61;40.17;101908.97;4991602;28;20084;-72
2021/06/18 08:33:48;;;;;;;3.70;1.00;;;;;;;22.61;39.86;101905.47;4960900;28;20108;-72
2021/06/18 08:36:14;;;;;;;4.38;1.00;;;;;;;22.60;39.64;101903.81;4991440;28;20053;-72
2021/06/18 08:38:42;;;;;;;4.10;1.00;;;;;;;22.60;39.85;101901.16;4974451;28;20068;-72
2021/06/18 08:41:08;;;;;;;3.78;1.10;;;;;;;22.59;39.73;101894.97;4988717;28;20156;-72
2021/06/18 08:43:34;;;;;;;4.82;1.08;;;;;;;22.59;39.37;101897.66;4991821;28;20545;-72
2021/06/18 08:46:02;;;;;;;7.60;1.52;;;;;;;22.58;39.12;101895.16;5005865;28;20041;-72
2021/06/18 08:48:32;;;;;;;4.75;1.02;;;;;;;22.57;39.11;101904.22;4985785;28;20068;-74
2021/06/18 08:50:59;;;;;;;4.90;1.30;;;;;;;22.57;39.49;101894.34;4975201;28;20065;-72
2021/06/18 08:53:26;;;;;;;3.95;1.10;;;;;;;22.56;39.31;101892.66;5009247;28;20120;-72
2021/06/18 08:55:54;;;;;;;4.72;1.02;;;;;;;22.56;38.87;101889.16;5008710;28;20041;-72
2021/06/18 08:58:22;;;;;;;5.75;1.30;;;;;;;22.54;38.96;101889.34;5008460;28;20045;-72
2021/06/18 09:00:47;;;;;;;4.78;0.90;;;;;;;22.51;38.78;101897.75;4982888;28;20060;-72
2021/06/18 09:03:37;;;;;;;3.42;1.10;;;;;;;22.47;38.55;101887.63;4969500;28;20038;-72
2021/06/18 09:06:17;;;;;;;6.90;1.10;;;;;;;22.45;38.85;101885.16;4997794;28;20030;-72
2021/06/18 09:08:43;;;;;;;3.38;1.30;;;;;;;22.47;38.56;101885.78;4989812;28;20369;-72
2021/06/18 09:11:09;;;;;;;2.05;0.70;;;;;;;22.47;38.24;101883.13;4990803;28;20045;-72
2021/06/18 09:13:34;;;;;;;4.80;1.13;;;;;;;22.44;38.30;101878.16;5007773;28;20050;-72
2021/06/18 09:16:00;;;;;;;3.28;1.13;;;;;;;22.42;38.18;101885.53;4990356;28;20064;-73
2021/06/18 09:18:29;;;;;;;4.35;1.23;;;;;;;22.39;38.05;101876.03;4990487;28;20137;-72
2021/06/18 09:21:19;;;;;;;2.85;0.80;;;;;;;22.35;38.01;101877.44;5005706;28;20029;-72
2021/06/18 09:23:52;;;;;;;2.70;1.00;;;;;;;22.37;37.97;101882.59;4986432;28;20035;-72
2021/06/18 09:26:19;;;;;;;4.93;1.02;;;;;;;22.35;38.03;101871.25;5009242;28;20040;-72
2021/06/18 09:29:09;;;;;;;3.78;0.82;;;;;;;22.30;37.77;101874.50;5008588;28;20041;-72
2021/06/18 09:31:47;;;;;;;4.60;1.30;;;;;;;22.33;37.60;101870.63;5008511;28;20033;-72
2021/06/18 09:34:13;;;;;;;2.30;1.05;;;;;;;22.32;37.49;101868.97;5008161;28;20044;-72
2021/06/18 09:36:40;;;;;;;2.58;0.90;;;;;;;22.31;37.37;101861.97;5008661;28;20034;-72
2021/06/18 09:39:13;;;;;;;3.50;0.98;;;;;;;22.29;37.36;101864.00;4973475;28;20461;-72
2021/06/18 09:41:42;;;;;;;4.07;1.02;;;;;;;22.30;37.11;101863.00;5008431;28;20096;-72
2021/06/18 09:44:18;;;;;;;3.65;0.90;;;;;;;22.26;37.17;101859.88;5009101;28;20018;-72
2021/06/18 09:46:54;;;;;;;7.13;1.27;;;;;;;22.27;36.75;101861.53;5012539;28;20080;-72
2021/06/18 09:49:34;;;;;;;5.07;0.95;;;;;;;22.24;37.17;101856.53;5011925;28;20033;-72
2021/06/18 09:52:01;;;;;;;4.72;1.15;;;;;;;22.26;36.78;101856.38;5012318;28;20040;-72
2021/06/18 09:54:32;;;;;;;4.05;1.20;;;;;;;22.26;37.10;101853.69;5012284;28;20046;-72
2021/06/18 09:57:05;;;;;;;5.10;1.10;;;;;;;22.22;36.71;101855.91;4994483;28;20420;-72
2021/06/18 09:59:43;;;;;;;6.03;1.00;;;;;;;22.24;36.76;101850.38;4991212;28;20038;-72
2021/06/18 10:02:08;;;;;;;4.93;1.08;;;;;;;22.23;37.03;101851.38;5005932;28;20084;-72
2021/06/18 10:04:36;;;;;;;2.47;1.10;;;;;;;22.20;36.90;101852.59;4991615;28;20038;-72
2021/06/18 10:07:02;;;;;;;2.22;0.90;;;;;;;22.20;36.57;101849.09;4989157;28;20181;-72
2021/06/18 10:09:27;;;;;;;6.18;1.10;;;;;;;22.18;36.49;101845.78;4984152;28;20511;-72
2021/06/18 10:11:54;;;;;;;4.70;0.98;;;;;;;22.18;36.69;101843.94;5011619;28;20114;-72
2021/06/18 10:14:19;;;;;;;3.88;1.02;;;;;;;22.17;36.34;101844.97;5012128;28;20549;-72
2021/06/18 10:16:45;;;;;;;1.85;1.00;;;;;;;22.17;36.47;101836.13;4994576;28;20040;-72
2021/06/18 10:19:10;;;;;;;4.07;1.10;;;;;;;22.15;36.37;101841.66;5010721;28;20037;-72
2021/06/18 10:21:52;;;;;;;4.47;1.13;;;;;;;22.13;36.46;101835.66;4988346;28;20776;-72
2021/06/18 10:24:23;;;;;;;4.93;1.30;;;;;;;22.15;36.23;101838.97;4988385;28;20034;-72
2021/06/18 10:26:50;;;;;;;5.05;1.10;;;;;;;22.15;36.13;101838.97;4998158;28;20489;-72
2021/06/18 10:29:29;;;;;;;2.80;1.10;;;;;;;22.13;36.16;101838.34;4992970;28;20037;-72
2021/06/18 10:31:55;;;;;;;5.07;1.48;;;;;;;22.15;36.03;101840.81;5004825;28;20037;-72
2021/06/18 10:34:20;;;;;;;3.10;1.05;;;;;;;22.14;35.93;101839.16;5010791;28;20037;-73
2021/06/18 10:36:46;;;;;;;3.22;1.13;;;;;;;22.16;35.78;101837.13;5006532;28;20037;-72
2021/06/18 10:39:19;;;;;;;3.35;1.40;;;;;;;22.14;35.64;101839.16;5000896;28;20041;-72
2021/06/18 10:41:58;;;;;;;2.65;1.00;;;;;;;22.12;35.69;101828.69;5011388;28;20104;-72
2021/06/18 10:44:39;;;;;;;6.57;1.27;;;;;;;22.09;35.71;101829.88;5011226;28;20489;-72
2021/06/18 10:47:06;;;;;;;3.60;1.25;;;;;;;22.10;35.42;101830.72;5011188;28;20033;-72
2021/06/18 10:49:39;;;;;;;4.53;1.25;;;;;;;22.07;35.66;101823.88;5010805;28;20033;-72
2021/06/18 10:52:18;;;;;;;3.47;1.40;;;;;;;22.06;35.31;101826.72;4977181;28;20662;-72
2021/06/18 10:54:58;;;;;;;3.53;1.25;;;;;;;22.03;35.44;101827.09;5010634;28;20026;-72
2021/06/18 10:57:29;;;;;;;3.17;1.17;;;;;;;22.02;35.47;101831.59;5010941;28;20034;-72
2021/06/18 11:00:20;;;;;;;3.40;1.40;;;;;;;22.02;35.17;101818.25;5009415;28;20504;-72
2021/06/18 11:02:46;;;;;;;3.92;1.35;;;;;;;22.00;35.40;101822.94;4990563;28;20048;-73
2021/06/18 11:05:14;;;;;;;3.63;1.30;;;;;;;22.00;35.62;101822.94;4992918;28;20160;-72
2021/06/18 11:07:40;;;;;;;3.05;1.23;;;;;;;21.99;35.25;101820.47;4993277;28;20351;-72
2021/06/18 11:10:25;;;;;;;4.18;1.30;;;;;;;22.00;35.40;101817.59;5010600;28;20033;-72
2021/06/18 11:13:01;;;;;;;3.17;1.35;;;;;;;21.95;35.55;101813.84;4992872;28;20105;-72
2021/06/18 11:15:29;;;;;;;4.22;1.50;;;;;;;21.96;35.46;101816.34;5010622;28;20032;-72
2021/06/18 11:18:18;;;;;;;5.70;2.03;;;;;;;21.95;35.69;101817.34;5009818;28;20117;-72
2021/06/18 11:20:47;;;;;;;4.05;1.60;;;;;;;21.97;35.39;101814.50;5010314;28;20095;-72
2021/06/18 11:23:56;;;;;;;4.75;1.70;;;;;;;21.93;35.48;101805.19;5002838;28;20033;-72
2021/06/18 11:26:22;;;;;;;3.85;1.67;;;;;;;21.95;35.43;101793.31;5007931;28;20036;-72
2021/06/18 11:28:51;;;;;;;4.63;1.52;;;;;;;21.95;35.55;101795.97;4992706;28;20456;-72
2021/06/18 11:31:35;;;;;;;2.92;1.65;;;;;;;21.95;35.59;101798.66;5010797;28;20396;-72
2021/06/18 11:34:01;;;;;;;3.80;1.77;;;;;;;21.96;35.50;101800.31;4992421;28;20037;-72
2021/06/18 11:36:35;;;;;;;6.72;1.95;;;;;;;21.96;35.50;101791.47;4992759;28;20153;-72
2021/06/18 11:39:03;;;;;;;2.45;1.60;;;;;;;21.96;35.05;101796.81;5010555;28;20026;-72
2021/06/18 11:41:32;;;;;;;4.80;1.80;;;;;;;21.96;35.20;101792.28;4991389;28;20451;-72
2021/06/18 11:44:02;;;;;;;5.60;1.65;;;;;;;21.97;35.48;101796.63;4997030;28;20046;-72
2021/06/18 11:46:30;;;;;;;5.55;1.90;;;;;;;21.96;35.19;101791.47;5004609;28;20034;-72
2021/06/18 11:48:59;;;;;;;4.72;1.60;;;;;;;21.95;35.17;101795.97;4991902;28;20092;-72
2021/06/18 11:51:27;;;;;;;4.78;1.80;;;;;;;21.95;35.30;101795.16;4993443;28;20068;-72
2021/06/18 11:53:53;;;;;;;4.40;1.90;;;;;;;21.93;35.14;101787.31;5009657;28;20038;-72
2021/06/18 11:56:19;;;;;;;4.47;1.75;;;;;;;21.94;35.13;101788.16;5010402;28;20034;-72
2021/06/18 11:58:47;;;;;;;4.05;1.73;;;;;;;21.94;35.11;101789.00;5009693;28;20479;-72
2021/06/18 12:01:19;;;;;;;5.13;1.90;;;;;;;21.93;35.50;101789.16;5010376;28;20030;-72
2021/06/18 12:03:49;;;;;;;4.22;2.10;;;;;;;21.93;35.20;101789.97;4986384;28;20452;-72
2021/06/18 12:06:19;;;;;;;5.82;2.08;;;;;;;21.92;35.52;101779.47;5002030;28;20119;-72
2021/06/18 12:09:16;;;;;;;5.40;2.10;;;;;;;21.89;35.54;101771.84;5007893;28;20057;-72
2021/06/18 12:12:01;;;;;;;3.55;2.08;;;;;;;21.89;35.38;101771.84;4979207;28;20129;-71
2021/06/18 12:14:41;;;;;;;4.57;2.30;;;;;;;21.89;35.42;101774.53;5009805;28;20124;-72
2021/06/18 12:17:08;;;;;;;7.28;2.88;;;;;;;21.92;35.59;101776.81;5009606;28;20109;-72
2021/06/18 12:19:48;;;;;;;6.10;2.45;;;;;;;21.89;35.36;101767.34;5008896;28;20077;-73
2021/06/18 12:22:16;;;;;;;6.38;2.50;;;;;;;21.90;35.29;101771.66;5001999;28;20386;-72
2021/06/18 12:24:43;;;;;;;4.82;2.42;;;;;;;21.89;35.40;101770.00;5008938;28;20070;-72
2021/06/18 12:27:35;;;;;;;4.75;2.70;;;;;;;21.90;35.44;101777.00;5009714;28;20030;-72
2021/06/18 12:30:06;;;;;;;7.30;2.78;;;;;;;21.91;35.46;101777.81;5006658;28;20046;-72
2021/06/18 12:32:34;;;;;;;7.90;3.05;;;;;;;21.90;35.17;101770.84;4991556;28;20103;-72